sensor_id;sensor_type;location;lat;lon;timestamp;P1;durP1;ratioP1;P2;durP2;ratioP2
20065;SDS011;10193;48.884;9.182;2022-11-20T00:00:15;12.55;;;6.68;;
20065;SDS011;10193;48.884;9.182;2022-11-20T00:02:42;7.40;;;6.07;;
20065;SDS011;10193;48.884;9.182;2022-11-20T00:05:10;6.50;;;5.90;;
20065;SDS011;10193;48.884;9.182;2022-11-20T00:07:37;6.78;;;6.13;;
20065;SDS011;10193;48.884;9.182;2022-11-20T00:10:03;8.17;;;6.37;;
20065;SDS011;10193;48.884;9.182;2022-11-20T00:12:31;7.00;;;6.30;;
20065;SDS011;10193;48.884;9.182;2022-11-20T00:14:58;10.10;;;5.85;;
20065;SDS011;10193;48.884;9.182;2022-11-20T00:17:24;7.97;;;5.72;;
20065;SDS011;10193;48.884;9.182;2022-11-20T00:19:51;10.40;;;5.88;;
20065;SDS011;10193;48.884;9.182;2022-11-20T00:22:19;6.17;;;5.57;;
20065;SDS011;10193;48.884;9.182;2022-11-20T00:24:46;6.60;;;6.00;;
20065;SDS011;10193;48.884;9.182;2022-11-20T00:27:12;5.75;;;5.25;;
20065;SDS011;10193;48.884;9.182;2022-11-20T00:29:39;5.90;;;5.32;;
20065;SDS011;10193;48.884;9.182;2022-11-20T00:32:05;5.13;;;4.63;;
20065;SDS011;10193;48.884;9.182;2022-11-20T00:34:32;5.70;;;5.20;;
20065;SDS011;10193;48.884;9.182;2022-11-20T00:36:59;5.27;;;4.77;;
20065;SDS011;10193;48.884;9.182;2022-11-20T00:39:27;5.32;;;4.82;;
20065;SDS011;10193;48.884;9.182;2022-11-20T00:41:53;5.38;;;4.88;;
20065;SDS011;10193;48.884;9.182;2022-11-20T00:44:20;5.50;;;5.00;;
20065;SDS011;10193;48.884;9.182;2022-11-20T00:46:47;10.73;;;4.68;;
20065;SDS011;10193;48.884;9.182;2022-11-20T00:49:13;4.85;;;4.45;;
20065;SDS011;10193;48.884;9.182;2022-11-20T00:51:40;5.10;;;4.60;;
20065;SDS011;10193;48.884;9.182;2022-11-20T00:54:06;7.20;;;5.00;;
20065;SDS011;10193;48.884;9.182;2022-11-20T00:56:34;5.57;;;4.97;;
20065;SDS011;10193;48.884;9.182;2022-11-20T00:59:01;5.22;;;4.72;;
20065;SDS011;10193;48.884;9.182;2022-11-20T01:01:28;5.30;;;4.80;;
20065;SDS011;10193;48.884;9.182;2022-11-20T01:03:57;5.15;;;4.65;;
20065;SDS011;10193;48.884;9.182;2022-11-20T01:06:26;5.70;;;5.07;;
20065;SDS011;10193;48.884;9.182;2022-11-20T01:08:55;13.65;;;5.47;;
20065;SDS011;10193;48.884;9.182;2022-11-20T01:11:24;6.00;;;5.38;;
20065;SDS011;10193;48.884;9.182;2022-11-20T01:13:54;28.02;;;5.68;;
20065;SDS011;10193;48.884;9.182;2022-11-20T01:16:23;12.77;;;5.97;;
20065;SDS011;10193;48.884;9.182;2022-11-20T01:18:52;11.00;;;7.22;;
20065;SDS011;10193;48.884;9.182;2022-11-20T01:21:22;10.38;;;5.47;;
20065;SDS011;10193;48.884;9.182;2022-11-20T01:23:51;13.25;;;5.38;;
20065;SDS011;10193;48.884;9.182;2022-11-20T01:26:18;5.85;;;5.25;;
20065;SDS011;10193;48.884;9.182;2022-11-20T01:28:46;5.87;;;5.27;;
20065;SDS011;10193;48.884;9.182;2022-11-20T01:31:15;6.97;;;5.27;;
20065;SDS011;10193;48.884;9.182;2022-11-20T01:33:44;9.95;;;5.68;;
20065;SDS011;10193;48.884;9.182;2022-11-20T01:36:13;15.13;;;6.40;;
20065;SDS011;10193;48.884;9.182;2022-11-20T01:38:40;5.90;;;5.30;;
20065;SDS011;10193;48.884;9.182;2022-11-20T01:41:07;6.90;;;5.70;;
20065;SDS011;10193;48.884;9.182;2022-11-20T01:43:35;18.48;;;6.00;;
20065;SDS011;10193;48.884;9.182;2022-11-20T01:48:48;17.50;;;5.45;;
20065;SDS011;10193;48.884;9.182;2022-11-20T01:51:21;12.95;;;5.30;;
20065;SDS011;10193;48.884;9.182;2022-11-20T01:53:52;14.48;;;5.03;;
20065;SDS011;10193;48.884;9.182;2022-11-20T01:56:21;45.47;;;5.73;;
20065;SDS011;10193;48.884;9.182;2022-11-20T01:58:50;20.92;;;5.65;;
20065;SDS011;10193;48.884;9.182;2022-11-20T02:01:23;22.00;;;5.60;;
20065;SDS011;10193;48.884;9.182;2022-11-20T02:03:50;26.73;;;6.30;;
20065;SDS011;10193;48.884;9.182;2022-11-20T02:06:19;14.00;;;5.72;;
20065;SDS011;10193;48.884;9.182;2022-11-20T02:08:48;10.45;;;5.13;;
20065;SDS011;10193;48.884;9.182;2022-11-20T02:11:15;23.85;;;5.53;;
20065;SDS011;10193;48.884;9.182;2022-11-20T02:13:42;19.95;;;5.15;;
20065;SDS011;10193;48.884;9.182;2022-11-20T02:16:08;16.90;;;5.70;;
20065;SDS011;10193;48.884;9.182;2022-11-20T02:18:38;6.72;;;4.75;;
20065;SDS011;10193;48.884;9.182;2022-11-20T02:21:06;5.20;;;4.70;;
20065;SDS011;10193;48.884;9.182;2022-11-20T02:23:39;5.70;;;5.15;;
20065;SDS011;10193;48.884;9.182;2022-11-20T02:26:21;5.22;;;4.40;;
20065;SDS011;10193;48.884;9.182;2022-11-20T02:28:49;5.03;;;4.57;;
20065;SDS011;10193;48.884;9.182;2022-11-20T02:31:17;5.88;;;5.35;;
20065;SDS011;10193;48.884;9.182;2022-11-20T02:33:43;5.32;;;4.82;;
20065;SDS011;10193;48.884;9.182;2022-11-20T02:36:11;5.70;;;4.80;;
20065;SDS011;10193;48.884;9.182;2022-11-20T02:38:40;5.70;;;5.20;;
20065;SDS011;10193;48.884;9.182;2022-11-20T02:41:09;6.20;;;5.60;;
20065;SDS011;10193;48.884;9.182;2022-11-20T02:43:35;5.17;;;4.67;;
20065;SDS011;10193;48.884;9.182;2022-11-20T02:46:02;5.40;;;4.93;;
20065;SDS011;10193;48.884;9.182;2022-11-20T02:48:29;4.70;;;4.30;;
20065;SDS011;10193;48.884;9.182;2022-11-20T02:50:55;7.25;;;4.90;;
20065;SDS011;10193;48.884;9.182;2022-11-20T02:53:22;4.30;;;3.90;;
20065;SDS011;10193;48.884;9.182;2022-11-20T02:55:49;4.70;;;4.20;;
20065;SDS011;10193;48.884;9.182;2022-11-20T02:58:17;3.72;;;3.50;;
20065;SDS011;10193;48.884;9.182;2022-11-20T03:00:43;3.42;;;3.15;;
20065;SDS011;10193;48.884;9.182;2022-11-20T03:03:10;3.10;;;2.90;;
20065;SDS011;10193;48.884;9.182;2022-11-20T03:05:38;3.70;;;3.40;;
20065;SDS011;10193;48.884;9.182;2022-11-20T03:08:04;3.70;;;3.40;;
20065;SDS011;10193;48.884;9.182;2022-11-20T03:10:31;3.57;;;3.27;;
20065;SDS011;10193;48.884;9.182;2022-11-20T03:12:57;3.55;;;3.08;;
20065;SDS011;10193;48.884;9.182;2022-11-20T03:15:26;3.40;;;3.10;;
20065;SDS011;10193;48.884;9.182;2022-11-20T03:17:53;3.40;;;3.20;;
20065;SDS011;10193;48.884;9.182;2022-11-20T03:20:20;3.17;;;2.90;;
20065;SDS011;10193;48.884;9.182;2022-11-20T03:22:47;3.42;;;3.17;;
20065;SDS011;10193;48.884;9.182;2022-11-20T03:25:14;3.40;;;3.10;;
20065;SDS011;10193;48.884;9.182;2022-11-20T03:27:40;3.35;;;3.05;;
20065;SDS011;10193;48.884;9.182;2022-11-20T03:30:07;2.92;;;2.72;;
20065;SDS011;10193;48.884;9.182;2022-11-20T03:32:36;2.95;;;2.75;;
20065;SDS011;10193;48.884;9.182;2022-11-20T03:35:03;3.20;;;2.90;;
20065;SDS011;10193;48.884;9.182;2022-11-20T03:37:31;3.00;;;2.80;;
20065;SDS011;10193;48.884;9.182;2022-11-20T03:39:58;2.85;;;2.65;;
20065;SDS011;10193;48.884;9.182;2022-11-20T03:42:24;3.17;;;2.88;;
20065;SDS011;10193;48.884;9.182;2022-11-20T03:45:08;2.70;;;2.33;;
20065;SDS011;10193;48.884;9.182;2022-11-20T03:47:37;2.90;;;2.28;;
20065;SDS011;10193;48.884;9.182;2022-11-20T03:50:03;2.60;;;2.40;;
20065;SDS011;10193;48.884;9.182;2022-11-20T03:52:30;1.95;;;1.85;;
20065;SDS011;10193;48.884;9.182;2022-11-20T03:54:57;2.50;;;2.30;;
20065;SDS011;10193;48.884;9.182;2022-11-20T03:57:24;2.00;;;1.90;;
20065;SDS011;10193;48.884;9.182;2022-11-20T03:59:50;2.00;;;1.80;;
20065;SDS011;10193;48.884;9.182;2022-11-20T04:02:17;1.88;;;1.77;;
20065;SDS011;10193;48.884;9.182;2022-11-20T04:04:45;1.90;;;1.80;;
20065;SDS011;10193;48.884;9.182;2022-11-20T04:07:12;1.83;;;1.73;;
20065;SDS011;10193;48.884;9.182;2022-11-20T04:09:39;2.00;;;1.90;;
20065;SDS011;10193;48.884;9.182;2022-11-20T04:12:05;2.03;;;1.85;;
20065;SDS011;10193;48.884;9.182;2022-11-20T04:14:32;2.35;;;1.73;;
20065;SDS011;10193;48.884;9.182;2022-11-20T04:16:59;2.65;;;2.03;;
20065;SDS011;10193;48.884;9.182;2022-11-20T04:19:25;2.00;;;1.70;;
20065;SDS011;10193;48.884;9.182;2022-11-20T04:21:53;2.17;;;1.90;;
20065;SDS011;10193;48.884;9.182;2022-11-20T04:24:20;2.00;;;1.90;;
20065;SDS011;10193;48.884;9.182;2022-11-20T04:26:47;2.10;;;1.90;;
20065;SDS011;10193;48.884;9.182;2022-11-20T04:29:13;1.80;;;1.70;;
20065;SDS011;10193;48.884;9.182;2022-11-20T04:31:40;2.10;;;2.00;;
20065;SDS011;10193;48.884;9.182;2022-11-20T04:34:07;1.90;;;1.80;;
20065;SDS011;10193;48.884;9.182;2022-11-20T04:36:33;2.00;;;1.90;;
20065;SDS011;10193;48.884;9.182;2022-11-20T04:39:02;2.10;;;2.00;;
20065;SDS011;10193;48.884;9.182;2022-11-20T04:41:33;2.03;;;1.92;;
20065;SDS011;10193;48.884;9.182;2022-11-20T04:44:01;2.20;;;2.00;;
20065;SDS011;10193;48.884;9.182;2022-11-20T04:46:29;1.83;;;1.73;;
20065;SDS011;10193;48.884;9.182;2022-11-20T04:48:57;1.90;;;1.80;;
20065;SDS011;10193;48.884;9.182;2022-11-20T04:51:25;2.30;;;2.10;;
20065;SDS011;10193;48.884;9.182;2022-11-20T04:53:51;2.05;;;1.90;;
20065;SDS011;10193;48.884;9.182;2022-11-20T04:56:19;2.08;;;1.98;;
20065;SDS011;10193;48.884;9.182;2022-11-20T04:58:46;1.80;;;1.70;;
20065;SDS011;10193;48.884;9.182;2022-11-20T05:01:13;2.30;;;1.92;;
20065;SDS011;10193;48.884;9.182;2022-11-20T05:03:42;2.00;;;1.90;;
20065;SDS011;10193;48.884;9.182;2022-11-20T05:06:10;2.22;;;2.03;;
20065;SDS011;10193;48.884;9.182;2022-11-20T05:08:41;2.20;;;2.10;;
20065;SDS011;10193;48.884;9.182;2022-11-20T05:11:09;1.90;;;1.80;;
20065;SDS011;10193;48.884;9.182;2022-11-20T05:13:38;2.15;;;2.00;;
20065;SDS011;10193;48.884;9.182;2022-11-20T05:16:06;2.20;;;2.10;;
20065;SDS011;10193;48.884;9.182;2022-11-20T05:18:34;2.22;;;2.05;;
20065;SDS011;10193;48.884;9.182;2022-11-20T05:21:02;2.05;;;1.95;;
20065;SDS011;10193;48.884;9.182;2022-11-20T05:23:30;2.40;;;2.08;;
20065;SDS011;10193;48.884;9.182;2022-11-20T05:25:57;2.10;;;2.00;;
20065;SDS011;10193;48.884;9.182;2022-11-20T05:28:25;2.20;;;2.10;;
20065;SDS011;10193;48.884;9.182;2022-11-20T05:30:53;2.35;;;2.17;;
20065;SDS011;10193;48.884;9.182;2022-11-20T05:33:20;2.38;;;2.17;;
20065;SDS011;10193;48.884;9.182;2022-11-20T05:35:48;2.55;;;2.10;;
20065;SDS011;10193;48.884;9.182;2022-11-20T05:38:15;2.30;;;2.20;;
20065;SDS011;10193;48.884;9.182;2022-11-20T05:40:42;2.38;;;2.17;;
20065;SDS011;10193;48.884;9.182;2022-11-20T05:43:09;2.28;;;2.10;;
20065;SDS011;10193;48.884;9.182;2022-11-20T05:45:35;2.33;;;2.13;;
20065;SDS011;10193;48.884;9.182;2022-11-20T05:48:04;2.00;;;1.90;;
20065;SDS011;10193;48.884;9.182;2022-11-20T05:50:30;2.20;;;2.10;;
20065;SDS011;10193;48.884;9.182;2022-11-20T05:52:57;2.47;;;2.28;;
20065;SDS011;10193;48.884;9.182;2022-11-20T05:55:24;2.00;;;1.90;;
20065;SDS011;10193;48.884;9.182;2022-11-20T05:57:52;2.43;;;2.00;;
20065;SDS011;10193;48.884;9.182;2022-11-20T06:00:19;1.98;;;1.88;;
20065;SDS011;10193;48.884;9.182;2022-11-20T06:02:46;2.53;;;1.83;;
20065;SDS011;10193;48.884;9.182;2022-11-20T06:05:14;2.10;;;1.90;;
20065;SDS011;10193;48.884;9.182;2022-11-20T06:07:41;1.77;;;1.67;;
20065;SDS011;10193;48.884;9.182;2022-11-20T06:10:08;1.93;;;1.83;;
20065;SDS011;10193;48.884;9.182;2022-11-20T06:12:35;1.45;;;1.42;;
20065;SDS011;10193;48.884;9.182;2022-11-20T06:15:01;1.83;;;1.70;;
20065;SDS011;10193;48.884;9.182;2022-11-20T06:17:28;1.73;;;1.63;;
20065;SDS011;10193;48.884;9.182;2022-11-20T06:19:55;2.00;;;1.90;;
20065;SDS011;10193;48.884;9.182;2022-11-20T06:22:23;2.10;;;1.80;;
20065;SDS011;10193;48.884;9.182;2022-11-20T06:24:49;1.90;;;1.80;;
20065;SDS011;10193;48.884;9.182;2022-11-20T06:27:16;1.80;;;1.70;;
20065;SDS011;10193;48.884;9.182;2022-11-20T06:29:43;1.83;;;1.73;;
20065;SDS011;10193;48.884;9.182;2022-11-20T06:32:09;1.70;;;1.60;;
20065;SDS011;10193;48.884;9.182;2022-11-20T06:34:36;2.22;;;1.60;;
20065;SDS011;10193;48.884;9.182;2022-11-20T06:37:02;1.90;;;1.80;;
20065;SDS011;10193;48.884;9.182;2022-11-20T06:39:30;2.00;;;1.80;;
20065;SDS011;10193;48.884;9.182;2022-11-20T06:41:57;1.70;;;1.60;;
20065;SDS011;10193;48.884;9.182;2022-11-20T06:44:24;1.80;;;1.70;;
20065;SDS011;10193;48.884;9.182;2022-11-20T06:46:50;1.90;;;1.80;;
20065;SDS011;10193;48.884;9.182;2022-11-20T06:49:17;1.80;;;1.70;;
20065;SDS011;10193;48.884;9.182;2022-11-20T06:51:44;1.75;;;1.65;;
20065;SDS011;10193;48.884;9.182;2022-11-20T06:54:10;1.80;;;1.70;;
20065;SDS011;10193;48.884;9.182;2022-11-20T06:56:38;1.60;;;1.50;;
20065;SDS011;10193;48.884;9.182;2022-11-20T06:59:05;1.60;;;1.50;;
20065;SDS011;10193;48.884;9.182;2022-11-20T07:01:32;1.70;;;1.60;;
20065;SDS011;10193;48.884;9.182;2022-11-20T07:03:59;1.40;;;1.30;;
20065;SDS011;10193;48.884;9.182;2022-11-20T07:06:27;1.60;;;1.50;;
20065;SDS011;10193;48.884;9.182;2022-11-20T07:08:53;1.50;;;1.40;;
20065;SDS011;10193;48.884;9.182;2022-11-20T07:11:20;1.67;;;1.50;;
20065;SDS011;10193;48.884;9.182;2022-11-20T07:13:48;1.42;;;1.33;;
20065;SDS011;10193;48.884;9.182;2022-11-20T07:16:15;1.52;;;1.42;;
20065;SDS011;10193;48.884;9.182;2022-11-20T07:18:41;1.30;;;1.30;;
20065;SDS011;10193;48.884;9.182;2022-11-20T07:21:08;1.17;;;1.17;;
20065;SDS011;10193;48.884;9.182;2022-11-20T07:23:36;1.40;;;1.30;;
20065;SDS011;10193;48.884;9.182;2022-11-20T07:26:03;1.88;;;1.60;;
20065;SDS011;10193;48.884;9.182;2022-11-20T07:28:30;1.73;;;1.63;;
20065;SDS011;10193;48.884;9.182;2022-11-20T07:30:58;1.20;;;1.20;;
20065;SDS011;10193;48.884;9.182;2022-11-20T07:33:25;1.20;;;1.20;;
20065;SDS011;10193;48.884;9.182;2022-11-20T07:35:52;1.60;;;1.50;;
20065;SDS011;10193;48.884;9.182;2022-11-20T07:38:18;1.48;;;1.38;;
20065;SDS011;10193;48.884;9.182;2022-11-20T07:40:45;1.58;;;1.48;;
20065;SDS011;10193;48.884;9.182;2022-11-20T07:43:12;1.15;;;1.15;;
20065;SDS011;10193;48.884;9.182;2022-11-20T07:45:38;1.48;;;1.40;;
20065;SDS011;10193;48.884;9.182;2022-11-20T07:48:06;1.73;;;1.63;;
20065;SDS011;10193;48.884;9.182;2022-11-20T07:50:33;1.60;;;1.50;;
20065;SDS011;10193;48.884;9.182;2022-11-20T07:53:00;1.50;;;1.40;;
20065;SDS011;10193;48.884;9.182;2022-11-20T07:55:28;1.52;;;1.30;;
20065;SDS011;10193;48.884;9.182;2022-11-20T07:57:55;1.40;;;1.30;;
20065;SDS011;10193;48.884;9.182;2022-11-20T08:00:22;1.20;;;1.20;;
20065;SDS011;10193;48.884;9.182;2022-11-20T08:02:49;1.40;;;1.30;;
20065;SDS011;10193;48.884;9.182;2022-11-20T08:05:17;1.40;;;1.30;;
20065;SDS011;10193;48.884;9.182;2022-11-20T08:07:44;1.60;;;1.50;;
20065;SDS011;10193;48.884;9.182;2022-11-20T08:10:11;1.40;;;1.30;;
20065;SDS011;10193;48.884;9.182;2022-11-20T08:12:43;1.50;;;1.40;;
20065;SDS011;10193;48.884;9.182;2022-11-20T08:15:28;1.50;;;1.40;;
20065;SDS011;10193;48.884;9.182;2022-11-20T08:17:58;1.23;;;1.23;;
20065;SDS011;10193;48.884;9.182;2022-11-20T08:20:27;1.50;;;1.40;;
20065;SDS011;10193;48.884;9.182;2022-11-20T08:22:57;1.30;;;1.23;;
20065;SDS011;10193;48.884;9.182;2022-11-20T08:25:24;1.85;;;1.30;;
20065;SDS011;10193;48.884;9.182;2022-11-20T08:27:51;1.50;;;1.40;;
20065;SDS011;10193;48.884;9.182;2022-11-20T08:30:18;1.20;;;1.10;;
20065;SDS011;10193;48.884;9.182;2022-11-20T08:32:45;1.17;;;1.17;;
20065;SDS011;10193;48.884;9.182;2022-11-20T08:35:11;1.20;;;1.20;;
20065;SDS011;10193;48.884;9.182;2022-11-20T08:37:40;1.00;;;1.00;;
20065;SDS011;10193;48.884;9.182;2022-11-20T08:40:07;1.02;;;1.00;;
20065;SDS011;10193;48.884;9.182;2022-11-20T08:42:36;0.95;;;0.95;;
20065;SDS011;10193;48.884;9.182;2022-11-20T08:45:03;0.70;;;0.70;;
20065;SDS011;10193;48.884;9.182;2022-11-20T08:50:06;1.67;;;1.13;;
20065;SDS011;10193;48.884;9.182;2022-11-20T08:52:33;1.00;;;0.90;;
20065;SDS011;10193;48.884;9.182;2022-11-20T08:55:01;1.00;;;0.90;;
20065;SDS011;10193;48.884;9.182;2022-11-20T08:57:31;0.90;;;0.90;;
20065;SDS011;10193;48.884;9.182;2022-11-20T08:59:58;0.73;;;0.73;;
20065;SDS011;10193;48.884;9.182;2022-11-20T09:02:25;0.77;;;0.77;;
20065;SDS011;10193;48.884;9.182;2022-11-20T09:04:52;0.80;;;0.80;;
20065;SDS011;10193;48.884;9.182;2022-11-20T09:07:19;0.70;;;0.70;;
20065;SDS011;10193;48.884;9.182;2022-11-20T09:09:46;0.80;;;0.80;;
20065;SDS011;10193;48.884;9.182;2022-11-20T09:12:14;0.60;;;0.60;;
20065;SDS011;10193;48.884;9.182;2022-11-20T09:14:41;0.60;;;0.60;;
20065;SDS011;10193;48.884;9.182;2022-11-20T09:17:09;0.50;;;0.50;;
20065;SDS011;10193;48.884;9.182;2022-11-20T09:19:38;0.60;;;0.60;;
20065;SDS011;10193;48.884;9.182;2022-11-20T09:22:05;0.85;;;0.50;;
20065;SDS011;10193;48.884;9.182;2022-11-20T09:24:31;0.52;;;0.52;;
20065;SDS011;10193;48.884;9.182;2022-11-20T09:27:00;0.63;;;0.63;;
20065;SDS011;10193;48.884;9.182;2022-11-20T09:29:29;0.43;;;0.43;;
20065;SDS011;10193;48.884;9.182;2022-11-20T09:31:56;0.55;;;0.55;;
20065;SDS011;10193;48.884;9.182;2022-11-20T09:34:22;0.50;;;0.50;;
20065;SDS011;10193;48.884;9.182;2022-11-20T09:36:49;0.52;;;0.52;;
20065;SDS011;10193;48.884;9.182;2022-11-20T09:39:16;0.50;;;0.50;;
20065;SDS011;10193;48.884;9.182;2022-11-20T09:41:49;0.60;;;0.60;;
20065;SDS011;10193;48.884;9.182;2022-11-20T09:44:43;0.50;;;0.50;;
20065;SDS011;10193;48.884;9.182;2022-11-20T09:47:24;0.50;;;0.50;;
20065;SDS011;10193;48.884;9.182;2022-11-20T09:50:02;0.40;;;0.40;;
20065;SDS011;10193;48.884;9.182;2022-11-20T09:52:39;0.70;;;0.70;;
20065;SDS011;10193;48.884;9.182;2022-11-20T09:55:12;0.55;;;0.55;;
20065;SDS011;10193;48.884;9.182;2022-11-20T09:57:40;0.70;;;0.70;;
20065;SDS011;10193;48.884;9.182;2022-11-20T10:00:12;0.85;;;0.45;;
20065;SDS011;10193;48.884;9.182;2022-11-20T10:02:42;0.50;;;0.50;;
20065;SDS011;10193;48.884;9.182;2022-11-20T10:05:15;0.90;;;0.68;;
20065;SDS011;10193;48.884;9.182;2022-11-20T10:07:51;0.70;;;0.70;;
20065;SDS011;10193;48.884;9.182;2022-11-20T10:10:25;0.75;;;0.68;;
20065;SDS011;10193;48.884;9.182;2022-11-20T10:13:02;0.60;;;0.60;;
20065;SDS011;10193;48.884;9.182;2022-11-20T10:15:44;0.80;;;0.80;;
20065;SDS011;10193;48.884;9.182;2022-11-20T10:18:27;1.10;;;0.70;;
20065;SDS011;10193;48.884;9.182;2022-11-20T10:21:07;1.23;;;0.90;;
20065;SDS011;10193;48.884;9.182;2022-11-20T10:23:48;0.75;;;0.75;;
20065;SDS011;10193;48.884;9.182;2022-11-20T10:26:26;0.93;;;0.65;;
20065;SDS011;10193;48.884;9.182;2022-11-20T10:29:08;0.55;;;0.55;;
20065;SDS011;10193;48.884;9.182;2022-11-20T10:31:40;0.80;;;0.80;;
20065;SDS011;10193;48.884;9.182;2022-11-20T10:34:12;0.60;;;0.60;;
20065;SDS011;10193;48.884;9.182;2022-11-20T10:36:45;0.80;;;0.80;;
20065;SDS011;10193;48.884;9.182;2022-11-20T10:39:18;0.52;;;0.52;;
20065;SDS011;10193;48.884;9.182;2022-11-20T10:41:51;0.80;;;0.80;;
20065;SDS011;10193;48.884;9.182;2022-11-20T10:44:19;0.50;;;0.50;;
20065;SDS011;10193;48.884;9.182;2022-11-20T10:47:02;1.00;;;0.70;;
20065;SDS011;10193;48.884;9.182;2022-11-20T10:49:30;0.68;;;0.68;;
20065;SDS011;10193;48.884;9.182;2022-11-20T10:51:59;0.52;;;0.50;;
20065;SDS011;10193;48.884;9.182;2022-11-20T10:54:35;1.00;;;0.82;;
20065;SDS011;10193;48.884;9.182;2022-11-20T10:57:07;0.70;;;0.60;;
20065;SDS011;10193;48.884;9.182;2022-11-20T11:02:35;1.08;;;1.00;;
20065;SDS011;10193;48.884;9.182;2022-11-20T11:05:13;1.05;;;0.82;;
20065;SDS011;10193;48.884;9.182;2022-11-20T11:07:48;0.80;;;0.80;;
20065;SDS011;10193;48.884;9.182;2022-11-20T11:10:20;1.52;;;1.13;;
20065;SDS011;10193;48.884;9.182;2022-11-20T11:12:50;1.40;;;1.10;;
20065;SDS011;10193;48.884;9.182;2022-11-20T11:15:24;1.10;;;1.10;;
20065;SDS011;10193;48.884;9.182;2022-11-20T11:17:54;1.10;;;1.10;;
20065;SDS011;10193;48.884;9.182;2022-11-20T11:20:21;1.30;;;1.20;;
20065;SDS011;10193;48.884;9.182;2022-11-20T11:22:52;1.33;;;1.13;;
20065;SDS011;10193;48.884;9.182;2022-11-20T11:25:21;1.40;;;1.30;;
20065;SDS011;10193;48.884;9.182;2022-11-20T11:27:51;1.40;;;1.30;;
20065;SDS011;10193;48.884;9.182;2022-11-20T11:30:20;1.40;;;1.25;;
20065;SDS011;10193;48.884;9.182;2022-11-20T11:32:47;1.30;;;1.20;;
20065;SDS011;10193;48.884;9.182;2022-11-20T11:35:25;1.08;;;1.08;;
20065;SDS011;10193;48.884;9.182;2022-11-20T11:37:54;2.17;;;1.13;;
20065;SDS011;10193;48.884;9.182;2022-11-20T11:40:30;1.15;;;1.05;;
20065;SDS011;10193;48.884;9.182;2022-11-20T11:42:59;1.17;;;1.17;;
20065;SDS011;10193;48.884;9.182;2022-11-20T11:45:30;1.45;;;1.10;;
20065;SDS011;10193;48.884;9.182;2022-11-20T11:47:56;2.20;;;1.10;;
20065;SDS011;10193;48.884;9.182;2022-11-20T11:50:27;1.20;;;1.10;;
20065;SDS011;10193;48.884;9.182;2022-11-20T11:52:56;1.75;;;1.17;;
20065;SDS011;10193;48.884;9.182;2022-11-20T11:55:33;1.10;;;1.10;;
20065;SDS011;10193;48.884;9.182;2022-11-20T11:58:09;2.47;;;1.20;;
20065;SDS011;10193;48.884;9.182;2022-11-20T12:00:41;1.13;;;1.02;;
20065;SDS011;10193;48.884;9.182;2022-11-20T12:03:17;1.33;;;1.17;;
20065;SDS011;10193;48.884;9.182;2022-11-20T12:05:48;0.90;;;0.90;;
20065;SDS011;10193;48.884;9.182;2022-11-20T12:08:21;1.48;;;1.08;;
20065;SDS011;10193;48.884;9.182;2022-11-20T12:10:53;1.20;;;0.98;;
20065;SDS011;10193;48.884;9.182;2022-11-20T12:13:30;1.33;;;0.80;;
20065;SDS011;10193;48.884;9.182;2022-11-20T12:16:03;2.00;;;0.85;;
20065;SDS011;10193;48.884;9.182;2022-11-20T12:18:30;0.85;;;0.85;;
20065;SDS011;10193;48.884;9.182;2022-11-20T12:21:02;0.80;;;0.80;;
20065;SDS011;10193;48.884;9.182;2022-11-20T12:23:38;2.00;;;1.02;;
20065;SDS011;10193;48.884;9.182;2022-11-20T12:26:14;1.98;;;0.88;;
20065;SDS011;10193;48.884;9.182;2022-11-20T12:28:50;1.67;;;0.80;;
20065;SDS011;10193;48.884;9.182;2022-11-20T12:31:35;0.90;;;0.82;;
20065;SDS011;10193;48.884;9.182;2022-11-20T12:34:21;0.88;;;0.70;;
20065;SDS011;10193;48.884;9.182;2022-11-20T12:37:00;0.80;;;0.70;;
20065;SDS011;10193;48.884;9.182;2022-11-20T12:39:34;0.98;;;0.85;;
20065;SDS011;10193;48.884;9.182;2022-11-20T12:42:05;0.90;;;0.75;;
20065;SDS011;10193;48.884;9.182;2022-11-20T12:48:28;1.75;;;0.98;;
20065;SDS011;10193;48.884;9.182;2022-11-20T12:51:27;0.60;;;0.57;;
20065;SDS011;10193;48.884;9.182;2022-11-20T12:57:09;1.40;;;0.60;;
20065;SDS011;10193;48.884;9.182;2022-11-20T12:59:50;0.88;;;0.63;;
20065;SDS011;10193;48.884;9.182;2022-11-20T13:02:29;0.77;;;0.60;;
20065;SDS011;10193;48.884;9.182;2022-11-20T13:05:06;0.52;;;0.52;;
20065;SDS011;10193;48.884;9.182;2022-11-20T13:07:44;0.68;;;0.60;;
20065;SDS011;10193;48.884;9.182;2022-11-20T13:10:16;0.93;;;0.70;;
20065;SDS011;10193;48.884;9.182;2022-11-20T13:12:49;1.38;;;0.88;;
20065;SDS011;10193;48.884;9.182;2022-11-20T13:15:24;0.95;;;0.70;;
20065;SDS011;10193;48.884;9.182;2022-11-20T13:18:00;0.90;;;0.70;;
20065;SDS011;10193;48.884;9.182;2022-11-20T13:20:36;0.70;;;0.70;;
20065;SDS011;10193;48.884;9.182;2022-11-20T13:23:06;0.82;;;0.60;;
20065;SDS011;10193;48.884;9.182;2022-11-20T13:25:35;2.10;;;0.85;;
20065;SDS011;10193;48.884;9.182;2022-11-20T13:28:03;0.98;;;0.70;;
20065;SDS011;10193;48.884;9.182;2022-11-20T13:30:50;1.25;;;0.60;;
20065;SDS011;10193;48.884;9.182;2022-11-20T13:33:22;0.60;;;0.60;;
20065;SDS011;10193;48.884;9.182;2022-11-20T13:35:54;0.80;;;0.73;;
20065;SDS011;10193;48.884;9.182;2022-11-20T13:38:22;0.73;;;0.60;;
20065;SDS011;10193;48.884;9.182;2022-11-20T13:40:53;0.90;;;0.65;;
20065;SDS011;10193;48.884;9.182;2022-11-20T13:43:22;2.03;;;0.80;;
20065;SDS011;10193;48.884;9.182;2022-11-20T13:45:55;0.52;;;0.52;;
20065;SDS011;10193;48.884;9.182;2022-11-20T13:48:23;0.60;;;0.60;;
20065;SDS011;10193;48.884;9.182;2022-11-20T13:50:57;0.40;;;0.40;;
20065;SDS011;10193;48.884;9.182;2022-11-20T13:53:33;0.70;;;0.70;;
20065;SDS011;10193;48.884;9.182;2022-11-20T13:56:14;1.42;;;0.60;;
20065;SDS011;10193;48.884;9.182;2022-11-20T13:58:49;0.45;;;0.45;;
20065;SDS011;10193;48.884;9.182;2022-11-20T14:01:23;1.05;;;0.80;;
20065;SDS011;10193;48.884;9.182;2022-11-20T14:03:50;0.47;;;0.43;;
20065;SDS011;10193;48.884;9.182;2022-11-20T14:06:21;1.00;;;0.47;;
20065;SDS011;10193;48.884;9.182;2022-11-20T14:08:53;1.10;;;0.50;;
20065;SDS011;10193;48.884;9.182;2022-11-20T14:11:22;0.80;;;0.63;;
20065;SDS011;10193;48.884;9.182;2022-11-20T14:13:54;0.50;;;0.43;;
20065;SDS011;10193;48.884;9.182;2022-11-20T14:16:25;0.60;;;0.60;;
20065;SDS011;10193;48.884;9.182;2022-11-20T14:18:54;0.73;;;0.65;;
20065;SDS011;10193;48.884;9.182;2022-11-20T14:21:23;1.33;;;0.70;;
20065;SDS011;10193;48.884;9.182;2022-11-20T14:23:52;0.68;;;0.38;;
20065;SDS011;10193;48.884;9.182;2022-11-20T14:29:27;1.52;;;0.95;;
20065;SDS011;10193;48.884;9.182;2022-11-20T14:32:08;0.88;;;0.88;;
20065;SDS011;10193;48.884;9.182;2022-11-20T14:34:37;0.80;;;0.80;;
20065;SDS011;10193;48.884;9.182;2022-11-20T14:37:09;1.30;;;1.10;;
20065;SDS011;10193;48.884;9.182;2022-11-20T14:39:40;2.00;;;1.40;;
20065;SDS011;10193;48.884;9.182;2022-11-20T14:42:15;1.30;;;1.20;;
20065;SDS011;10193;48.884;9.182;2022-11-20T14:44:43;1.40;;;0.80;;
20065;SDS011;10193;48.884;9.182;2022-11-20T14:47:10;0.70;;;0.70;;
20065;SDS011;10193;48.884;9.182;2022-11-20T14:49:39;0.70;;;0.70;;
20065;SDS011;10193;48.884;9.182;2022-11-20T14:52:11;1.38;;;0.77;;
20065;SDS011;10193;48.884;9.182;2022-11-20T14:54:44;0.77;;;0.75;;
20065;SDS011;10193;48.884;9.182;2022-11-20T14:57:21;1.40;;;0.80;;
20065;SDS011;10193;48.884;9.182;2022-11-20T15:00:03;0.90;;;0.80;;
20065;SDS011;10193;48.884;9.182;2022-11-20T15:02:34;0.68;;;0.68;;
20065;SDS011;10193;48.884;9.182;2022-11-20T15:05:06;0.55;;;0.55;;
20065;SDS011;10193;48.884;9.182;2022-11-20T15:07:33;0.90;;;0.80;;
20065;SDS011;10193;48.884;9.182;2022-11-20T15:10:03;1.08;;;0.70;;
20065;SDS011;10193;48.884;9.182;2022-11-20T15:12:32;0.82;;;0.82;;
20065;SDS011;10193;48.884;9.182;2022-11-20T15:15:01;0.65;;;0.65;;
20065;SDS011;10193;48.884;9.182;2022-11-20T15:17:30;1.55;;;0.82;;
20065;SDS011;10193;48.884;9.182;2022-11-20T15:19:57;0.70;;;0.70;;